sensor_id;sensor_type;location;lat;lon;timestamp;pressure;altitude;pressure_sealevel;temperature;humidity
24752;BME280;27246;52.376;4.628;2022-11-15T00:01:30;100644.59;;;6.05;100.00
24752;BME280;27246;52.376;4.628;2022-11-15T00:06:50;100637.44;;;6.12;100.00
24752;BME280;27246;52.376;4.628;2022-11-15T00:12:10;100632.47;;;6.08;100.00
24752;BME280;27246;52.376;4.628;2022-11-15T00:17:30;100636.59;;;6.12;100.00
24752;BME280;27246;52.376;4.628;2022-11-15T00:22:50;100631.13;;;6.12;100.00
24752;BME280;27246;52.376;4.628;2022-11-15T00:28:10;100631.56;;;5.99;100.00
24752;BME280;27246;52.376;4.628;2022-11-15T00:33:30;100625.97;;;6.09;100.00
24752;BME280;27246;52.376;4.628;2022-11-15T00:38:51;100620.75;;;6.15;100.00
24752;BME280;27246;52.376;4.628;2022-11-15T00:44:11;100611.94;;;6.04;100.00
24752;BME280;27246;52.376;4.628;2022-11-15T00:49:31;100598.13;;;6.05;100.00
24752;BME280;27246;52.376;4.628;2022-11-15T00:54:50;100597.13;;;6.14;100.00
24752;BME280;27246;52.376;4.628;2022-11-15T01:06:01;100593.00;;;6.10;100.00
24752;BME280;27246;52.376;4.628;2022-11-15T01:11:21;100599.56;;;6.17;100.00
24752;BME280;27246;52.376;4.628;2022-11-15T01:16:41;100591.66;;;6.14;100.00
24752;BME280;27246;52.376;4.628;2022-11-15T01:22:01;100582.97;;;6.19;100.00
24752;BME280;27246;52.376;4.628;2022-11-15T01:27:22;100579.53;;;6.17;100.00
24752;BME280;27246;52.376;4.628;2022-11-15T01:32:42;100574.06;;;6.17;100.00
24752;BME280;27246;52.376;4.628;2022-11-15T01:38:03;100566.88;;;6.16;100.00
24752;BME280;27246;52.376;4.628;2022-11-15T01:48:43;100557.06;;;6.31;100.00
24752;BME280;27246;52.376;4.628;2022-11-15T01:54:04;100550.38;;;6.26;100.00
24752;BME280;27246;52.376;4.628;2022-11-15T01:59:26;100547.13;;;6.30;100.00
24752;BME280;27246;52.376;4.628;2022-11-15T02:04:46;100537.25;;;6.37;100.00
24752;BME280;27246;52.376;4.628;2022-11-15T02:10:09;100526.31;;;6.37;100.00
24752;BME280;27246;52.376;4.628;2022-11-15T02:15:33;100530.72;;;6.30;100.00
24752;BME280;27246;52.376;4.628;2022-11-15T02:21:01;100519.25;;;6.35;100.00
24752;BME280;27246;52.376;4.628;2022-11-15T02:32:17;100491.63;;;6.46;100.00
24752;BME280;27246;52.376;4.628;2022-11-15T02:43:00;100482.91;;;6.51;100.00
24752;BME280;27246;52.376;4.628;2022-11-15T02:48:42;100474.00;;;6.49;100.00
24752;BME280;27246;52.376;4.628;2022-11-15T02:54:03;100469.75;;;6.63;100.00
24752;BME280;27246;52.376;4.628;2022-11-15T03:05:04;100467.03;;;6.63;100.00
24752;BME280;27246;52.376;4.628;2022-11-15T03:10:43;100462.06;;;6.74;100.00
24752;BME280;27246;52.376;4.628;2022-11-15T03:21:28;100464.97;;;6.73;100.00
24752;BME280;27246;52.376;4.628;2022-11-15T03:26:50;100455.22;;;6.70;100.00
24752;BME280;27246;52.376;4.628;2022-11-15T03:32:13;100451.97;;;6.75;100.00
24752;BME280;27246;52.376;4.628;2022-11-15T03:37:40;100444.63;;;6.84;100.00
24752;BME280;27246;52.376;4.628;2022-11-15T03:48:26;100455.06;;;6.96;100.00
24752;BME280;27246;52.376;4.628;2022-11-15T03:53:48;100436.91;;;7.04;100.00
24752;BME280;27246;52.376;4.628;2022-11-15T03:59:08;100441.38;;;7.13;100.00
24752;BME280;27246;52.376;4.628;2022-11-15T04:04:28;100443.41;;;7.19;100.00
24752;BME280;27246;52.376;4.628;2022-11-15T04:09:48;100430.56;;;7.28;100.00
24752;BME280;27246;52.376;4.628;2022-11-15T04:15:25;100432.44;;;7.35;100.00
24752;BME280;27246;52.376;4.628;2022-11-15T04:20:45;100424.22;;;7.44;100.00
24752;BME280;27246;52.376;4.628;2022-11-15T04:26:24;100427.13;;;7.50;100.00
24752;BME280;27246;52.376;4.628;2022-11-15T04:31:44;100432.78;;;7.57;100.00
24752;BME280;27246;52.376;4.628;2022-11-15T04:37:05;100431.03;;;7.64;100.00
24752;BME280;27246;52.376;4.628;2022-11-15T04:42:35;100423.13;;;7.69;100.00
24752;BME280;27246;52.376;4.628;2022-11-15T04:47:56;100425.16;;;7.75;100.00
24752;BME280;27246;52.376;4.628;2022-11-15T04:53:17;100422.94;;;7.79;100.00
24752;BME280;27246;52.376;4.628;2022-11-15T04:58:37;100414.84;;;7.86;100.00
24752;BME280;27246;52.376;4.628;2022-11-15T05:03:58;100426.31;;;7.89;100.00
24752;BME280;27246;52.376;4.628;2022-11-15T05:09:37;100404.69;;;7.94;100.00
24752;BME280;27246;52.376;4.628;2022-11-15T05:14:57;100407.94;;;7.98;100.00
24752;BME280;27246;52.376;4.628;2022-11-15T05:20:17;100424.72;;;8.03;100.00
24752;BME280;27246;52.376;4.628;2022-11-15T05:25:37;100425.03;;;8.08;100.00
24752;BME280;27246;52.376;4.628;2022-11-15T05:31:08;100424.00;;;8.09;100.00
24752;BME280;27246;52.376;4.628;2022-11-15T05:36:33;100424.47;;;8.13;100.00
24752;BME280;27246;52.376;4.628;2022-11-15T05:41:56;100429.06;;;8.20;100.00
24752;BME280;27246;52.376;4.628;2022-11-15T05:47:20;100436.41;;;8.28;100.00
24752;BME280;27246;52.376;4.628;2022-11-15T05:52:43;100444.75;;;8.35;100.00
24752;BME280;27246;52.376;4.628;2022-11-15T05:58:04;100435.50;;;8.36;100.00
24752;BME280;27246;52.376;4.628;2022-11-15T06:03:24;100449.91;;;8.38;100.00
24752;BME280;27246;52.376;4.628;2022-11-15T06:08:44;100440.63;;;8.39;100.00
24752;BME280;27246;52.376;4.628;2022-11-15T06:14:05;100445.75;;;8.42;100.00
24752;BME280;27246;52.376;4.628;2022-11-15T06:19:26;100443.69;;;8.44;100.00
24752;BME280;27246;52.376;4.628;2022-11-15T06:24:50;100452.59;;;8.46;100.00
24752;BME280;27246;52.376;4.628;2022-11-15T06:30:10;100465.28;;;8.47;100.00
24752;BME280;27246;52.376;4.628;2022-11-15T06:35:33;100470.59;;;8.49;100.00
24752;BME280;27246;52.376;4.628;2022-11-15T06:40:54;100463.19;;;8.49;100.00
24752;BME280;27246;52.376;4.628;2022-11-15T06:46:14;100458.59;;;8.50;100.00
24752;BME280;27246;52.376;4.628;2022-11-15T06:51:35;100468.34;;;8.52;100.00
24752;BME280;27246;52.376;4.628;2022-11-15T06:56:55;100470.06;;;8.53;100.00
24752;BME280;27246;52.376;4.628;2022-11-15T07:02:15;100483.09;;;8.51;100.00
24752;BME280;27246;52.376;4.628;2022-11-15T07:07:53;100498.03;;;8.49;100.00
24752;BME280;27246;52.376;4.628;2022-11-15T07:13:14;100488.47;;;8.45;100.00
24752;BME280;27246;52.376;4.628;2022-11-15T07:18:35;100479.94;;;8.39;100.00
24752;BME280;27246;52.376;4.628;2022-11-15T07:23:56;100487.28;;;8.39;100.00
24752;BME280;27246;52.376;4.628;2022-11-15T07:29:15;100480.41;;;8.43;100.00
24752;BME280;27246;52.376;4.628;2022-11-15T07:34:35;100483.69;;;8.38;100.00
24752;BME280;27246;52.376;4.628;2022-11-15T07:39:55;100477.31;;;8.46;100.00
24752;BME280;27246;52.376;4.628;2022-11-15T07:45:15;100473.34;;;8.49;100.00
24752;BME280;27246;52.376;4.628;2022-11-15T07:51:17;100467.69;;;8.50;100.00
24752;BME280;27246;52.376;4.628;2022-11-15T07:56:37;100459.25;;;8.52;100.00
24752;BME280;27246;52.376;4.628;2022-11-15T08:01:58;100456.34;;;8.53;100.00
24752;BME280;27246;52.376;4.628;2022-11-15T08:07:19;100458.72;;;8.56;100.00
24752;BME280;27246;52.376;4.628;2022-11-15T08:12:39;100466.94;;;8.56;100.00
24752;BME280;27246;52.376;4.628;2022-11-15T08:18:01;100461.47;;;8.56;100.00
24752;BME280;27246;52.376;4.628;2022-11-15T08:23:25;100447.72;;;8.56;100.00
24752;BME280;27246;52.376;4.628;2022-11-15T08:28:45;100443.69;;;8.44;100.00
24752;BME280;27246;52.376;4.628;2022-11-15T08:34:06;100426.56;;;8.42;100.00
24752;BME280;27246;52.376;4.628;2022-11-15T08:39:26;100423.81;;;8.42;100.00
24752;BME280;27246;52.376;4.628;2022-11-15T08:44:46;100430.25;;;8.49;100.00
24752;BME280;27246;52.376;4.628;2022-11-15T08:50:07;100420.28;;;8.56;100.00
24752;BME280;27246;52.376;4.628;2022-11-15T08:55:27;100418.69;;;8.62;100.00
24752;BME280;27246;52.376;4.628;2022-11-15T09:00:49;100411.63;;;8.68;100.00
24752;BME280;27246;52.376;4.628;2022-11-15T09:06:09;100424.25;;;8.77;100.00
24752;BME280;27246;52.376;4.628;2022-11-15T09:11:32;100416.31;;;8.82;100.00
24752;BME280;27246;52.376;4.628;2022-11-15T09:16:52;100408.84;;;8.91;100.00
24752;BME280;27246;52.376;4.628;2022-11-15T09:22:12;100410.00;;;8.96;100.00
24752;BME280;27246;52.376;4.628;2022-11-15T09:27:33;100419.03;;;9.05;100.00
24752;BME280;27246;52.376;4.628;2022-11-15T09:32:53;100428.78;;;9.08;100.00
24752;BME280;27246;52.376;4.628;2022-11-15T09:38:13;100426.34;;;9.13;100.00
24752;BME280;27246;52.376;4.628;2022-11-15T09:43:43;100436.03;;;9.24;100.00
24752;BME280;27246;52.376;4.628;2022-11-15T09:49:07;100434.16;;;9.24;100.00
24752;BME280;27246;52.376;4.628;2022-11-15T09:54:26;100424.69;;;9.27;100.00
24752;BME280;27246;52.376;4.628;2022-11-15T10:05:25;100420.53;;;9.31;100.00
24752;BME280;27246;52.376;4.628;2022-11-15T10:10:41;100406.81;;;9.31;100.00
24752;BME280;27246;52.376;4.628;2022-11-15T10:15:44;100397.63;;;9.38;100.00
24752;BME280;27246;52.376;4.628;2022-11-15T10:20:50;100391.16;;;9.46;100.00
24752;BME280;27246;52.376;4.628;2022-11-15T10:25:53;100372.03;;;9.53;100.00
24752;BME280;27246;52.376;4.628;2022-11-15T10:30:58;100365.78;;;9.59;100.00
24752;BME280;27246;52.376;4.628;2022-11-15T10:41:10;100351.72;;;9.69;100.00
24752;BME280;27246;52.376;4.628;2022-11-15T10:46:19;100340.72;;;9.69;100.00
24752;BME280;27246;52.376;4.628;2022-11-15T10:57:10;100342.41;;;9.85;100.00
24752;BME280;27246;52.376;4.628;2022-11-15T11:02:29;100349.69;;;9.92;100.00
24752;BME280;27246;52.376;4.628;2022-11-15T11:07:32;100338.78;;;9.99;99.23
24752;BME280;27246;52.376;4.628;2022-11-15T11:12:43;100331.97;;;9.95;98.70
24752;BME280;27246;52.376;4.628;2022-11-15T11:44:30;100285.84;;;10.18;93.96
24752;BME280;27246;52.376;4.628;2022-11-15T12:00:04;100263.94;;;10.32;91.76
24752;BME280;27246;52.376;4.628;2022-11-15T12:05:17;100256.34;;;10.34;91.95
24752;BME280;27246;52.376;4.628;2022-11-15T12:10:25;100260.13;;;10.33;91.36
24752;BME280;27246;52.376;4.628;2022-11-15T12:15:31;100239.19;;;10.32;90.71
24752;BME280;27246;52.376;4.628;2022-11-15T12:20:36;100223.78;;;10.37;91.09
24752;BME280;27246;52.376;4.628;2022-11-15T12:25:58;100220.75;;;10.32;90.31
24752;BME280;27246;52.376;4.628;2022-11-15T12:31:09;100209.78;;;10.39;90.12
24752;BME280;27246;52.376;4.628;2022-11-15T12:41:28;100187.06;;;10.30;88.81
24752;BME280;27246;52.376;4.628;2022-11-15T12:56:45;100179.91;;;10.36;89.75
24752;BME280;27246;52.376;4.628;2022-11-15T13:11:54;100148.81;;;10.42;88.33
24752;BME280;27246;52.376;4.628;2022-11-15T13:16:58;100132.50;;;10.40;88.00
24752;BME280;27246;52.376;4.628;2022-11-15T13:22:04;100140.94;;;10.39;87.45
24752;BME280;27246;52.376;4.628;2022-11-15T13:27:24;100119.38;;;10.43;87.34
24752;BME280;27246;52.376;4.628;2022-11-15T13:32:26;100114.72;;;10.43;86.75
24752;BME280;27246;52.376;4.628;2022-11-15T13:37:28;100107.09;;;10.45;86.06
24752;BME280;27246;52.376;4.628;2022-11-15T13:42:31;100097.41;;;10.49;84.52
24752;BME280;27246;52.376;4.628;2022-11-15T13:47:33;100082.97;;;10.47;84.11
24752;BME280;27246;52.376;4.628;2022-11-15T13:52:35;100093.97;;;10.47;83.66
24752;BME280;27246;52.376;4.628;2022-11-15T13:57:44;100085.06;;;10.45;82.00
24752;BME280;27246;52.376;4.628;2022-11-15T14:02:47;100074.88;;;10.39;80.96
24752;BME280;27246;52.376;4.628;2022-11-15T14:07:56;100060.91;;;10.40;80.65
24752;BME280;27246;52.376;4.628;2022-11-15T14:13:00;100041.44;;;10.42;81.09
24752;BME280;27246;52.376;4.628;2022-11-15T14:18:03;100033.56;;;10.39;80.87
24752;BME280;27246;52.376;4.628;2022-11-15T14:23:20;100037.59;;;10.36;nan
24752;BME280;27246;52.376;4.628;2022-11-15T14:33:35;100010.25;;;10.35;81.16
24752;BME280;27246;52.376;4.628;2022-11-15T14:38:38;100003.47;;;10.31;81.83
24752;BME280;27246;52.376;4.628;2022-11-15T14:43:40;99989.28;;;10.27;82.48
24752;BME280;27246;52.376;4.628;2022-11-15T14:48:45;99996.91;;;10.25;82.80
24752;BME280;27246;52.376;4.628;2022-11-15T14:53:48;99990.75;;;10.23;82.92
24752;BME280;27246;52.376;4.628;2022-11-15T14:58:50;99975.28;;;10.22;82.40
24752;BME280;27246;52.376;4.628;2022-11-15T15:03:52;99963.41;;;10.21;81.80
24752;BME280;27246;52.376;4.628;2022-11-15T15:08:57;99963.44;;;10.28;81.98
24752;BME280;27246;52.376;4.628;2022-11-15T15:13:59;99943.09;;;10.23;81.22
24752;BME280;27246;52.376;4.628;2022-11-15T15:19:02;99946.28;;;10.26;81.31
24752;BME280;27246;52.376;4.628;2022-11-15T15:24:09;99947.13;;;10.27;81.43
24752;BME280;27246;52.376;4.628;2022-11-15T15:29:15;99940.34;;;10.23;82.08
24752;BME280;27246;52.376;4.628;2022-11-15T15:34:16;99937.59;;;10.23;82.91
24752;BME280;27246;52.376;4.628;2022-11-15T15:39:20;99916.00;;;10.19;83.21
24752;BME280;27246;52.376;4.628;2022-11-15T15:44:21;99926.34;;;10.17;83.60
24752;BME280;27246;52.376;4.628;2022-11-15T15:49:23;99916.00;;;10.19;83.67
24752;BME280;27246;52.376;4.628;2022-11-15T15:54:25;99913.63;;;10.16;84.36
24752;BME280;27246;52.376;4.628;2022-11-15T15:59:27;99917.84;;;10.12;84.82
24752;BME280;27246;52.376;4.628;2022-11-15T16:04:29;99911.31;;;10.13;85.06
24752;BME280;27246;52.376;4.628;2022-11-15T16:09:31;99924.00;;;10.14;85.12
24752;BME280;27246;52.376;4.628;2022-11-15T16:14:51;99917.84;;;10.12;86.05
24752;BME280;27246;52.376;4.628;2022-11-15T16:19:52;99896.47;;;10.08;87.77
24752;BME280;27246;52.376;4.628;2022-11-15T16:24:54;99892.63;;;10.02;89.05
24752;BME280;27246;52.376;4.628;2022-11-15T16:29:56;99892.63;;;10.02;89.64
24752;BME280;27246;52.376;4.628;2022-11-15T16:34:58;99890.88;;;9.94;90.35
24752;BME280;27246;52.376;4.628;2022-11-15T16:39:59;99900.00;;;9.95;91.42
24752;BME280;27246;52.376;4.628;2022-11-15T16:45:02;99901.88;;;9.88;92.56
24752;BME280;27246;52.376;4.628;2022-11-15T16:50:05;99898.03;;;9.82;94.69
24752;BME280;27246;52.376;4.628;2022-11-15T16:55:09;99889.09;;;9.73;96.36
24752;BME280;27246;52.376;4.628;2022-11-15T17:00:13;99884.03;;;9.77;97.79
24752;BME280;27246;52.376;4.628;2022-11-15T17:05:20;99886.53;;;9.72;98.99
24752;BME280;27246;52.376;4.628;2022-11-15T17:10:23;99887.16;;;9.67;100.00
24752;BME280;27246;52.376;4.628;2022-11-15T17:15:33;99880.38;;;9.63;100.00
24752;BME280;27246;52.376;4.628;2022-11-15T17:20:34;99877.63;;;9.63;100.00
24752;BME280;27246;52.376;4.628;2022-11-15T17:25:38;99871.47;;;9.61;100.00
24752;BME280;27246;52.376;4.628;2022-11-15T17:30:40;99879.06;;;9.59;100.00
24752;BME280;27246;52.376;4.628;2022-11-15T17:35:42;99857.88;;;9.53;100.00
24752;BME280;27246;52.376;4.628;2022-11-15T17:40:43;99849.44;;;9.54;100.00
24752;BME280;27246;52.376;4.628;2022-11-15T17:45:45;99858.53;;;9.55;100.00
24752;BME280;27246;52.376;4.628;2022-11-15T17:50:57;99854.25;;;9.46;100.00
24752;BME280;27246;52.376;4.628;2022-11-15T17:56:02;99843.88;;;9.48;100.00
24752;BME280;27246;52.376;4.628;2022-11-15T18:01:05;99835.00;;;9.46;100.00
24752;BME280;27246;52.376;4.628;2022-11-15T18:06:07;99839.19;;;9.41;100.00
24752;BME280;27246;52.376;4.628;2022-11-15T18:11:16;99828.00;;;9.43;100.00
24752;BME280;27246;52.376;4.628;2022-11-15T18:16:19;99836.06;;;9.45;100.00
24752;BME280;27246;52.376;4.628;2022-11-15T18:21:22;99831.44;;;9.52;100.00
24752;BME280;27246;52.376;4.628;2022-11-15T18:26:24;99829.75;;;9.51;100.00
24752;BME280;27246;52.376;4.628;2022-11-15T18:31:29;99826.34;;;9.49;100.00
24752;BME280;27246;52.376;4.628;2022-11-15T18:36:30;99817.69;;;9.52;100.00
24752;BME280;27246;52.376;4.628;2022-11-15T18:41:32;99820.88;;;9.55;100.00
24752;BME280;27246;52.376;4.628;2022-11-15T18:46:35;99821.09;;;9.54;100.00
24752;BME280;27246;52.376;4.628;2022-11-15T18:51:37;99802.47;;;9.56;100.00
24752;BME280;27246;52.376;4.628;2022-11-15T18:56:45;99802.28;;;9.57;100.00
24752;BME280;27246;52.376;4.628;2022-11-15T19:01:51;99790.91;;;9.60;100.00
24752;BME280;27246;52.376;4.628;2022-11-15T19:06:53;99795.97;;;9.64;100.00
24752;BME280;27246;52.376;4.628;2022-11-15T19:11:54;99802.31;;;9.64;100.00
24752;BME280;27246;52.376;4.628;2022-11-15T19:16:56;99796.88;;;9.71;100.00
24752;BME280;27246;52.376;4.628;2022-11-15T19:22:08;99788.38;;;9.66;100.00
24752;BME280;27246;52.376;4.628;2022-11-15T19:27:11;99797.44;;;9.66;100.00
24752;BME280;27246;52.376;4.628;2022-11-15T19:32:12;99798.97;;;9.69;100.00
24752;BME280;27246;52.376;4.628;2022-11-15T19:37:16;99780.94;;;9.66;100.00
24752;BME280;27246;52.376;4.628;2022-11-15T19:42:28;99772.94;;;9.65;100.00
24752;BME280;27246;52.376;4.628;2022-11-15T19:47:32;99771.84;;;9.59;100.00
24752;BME280;27246;52.376;4.628;2022-11-15T19:52:34;99772.50;;;9.61;100.00
24752;BME280;27246;52.376;4.628;2022-11-15T19:57:45;99778.19;;;9.66;100.00
24752;BME280;27246;52.376;4.628;2022-11-15T20:03:04;99775.91;;;9.70;100.00
24752;BME280;27246;52.376;4.628;2022-11-15T20:08:06;99770.66;;;9.75;100.00
24752;BME280;27246;52.376;4.628;2022-11-15T20:13:10;99770.19;;;9.71;100.00
24752;BME280;27246;52.376;4.628;2022-11-15T20:18:15;99775.06;;;9.69;100.00
24752;BME280;27246;52.376;4.628;2022-11-15T20:23:18;99754.16;;;9.75;100.00
24752;BME280;27246;52.376;4.628;2022-11-15T20:28:22;99754.16;;;9.75;100.00
24752;BME280;27246;52.376;4.628;2022-11-15T20:33:24;99755.81;;;9.69;100.00
24752;BME280;27246;52.376;4.628;2022-11-15T20:38:35;99748.19;;;9.71;100.00
24752;BME280;27246;52.376;4.628;2022-11-15T20:43:44;99749.47;;;9.75;100.00
24752;BME280;27246;52.376;4.628;2022-11-15T20:48:47;99744.19;;;9.80;100.00
24752;BME280;27246;52.376;4.628;2022-11-15T20:53:49;99742.97;;;9.83;100.00
24752;BME280;27246;52.376;4.628;2022-11-15T20:58:52;99748.66;;;9.81;100.00
24752;BME280;27246;52.376;4.628;2022-11-15T21:03:55;99742.75;;;9.91;100.00
24752;BME280;27246;52.376;4.628;2022-11-15T21:08:58;99741.47;;;9.87;100.00
24752;BME280;27246;52.376;4.628;2022-11-15T21:14:27;99729.63;;;9.87;100.00
24752;BME280;27246;52.376;4.628;2022-11-15T21:19:29;99724.78;;;9.89;100.00
24752;BME280;27246;52.376;4.628;2022-11-15T21:24:50;99736.63;;;9.89;100.00
24752;BME280;27246;52.376;4.628;2022-11-15T21:35:30;99720.31;;;9.94;100.00
24752;BME280;27246;52.376;4.628;2022-11-15T21:40:33;99711.47;;;9.99;100.00
24752;BME280;27246;52.376;4.628;2022-11-15T21:45:35;99698.53;;;9.99;100.00
24752;BME280;27246;52.376;4.628;2022-11-15T21:50:37;99704.06;;;9.99;100.00
24752;BME280;27246;52.376;4.628;2022-11-15T21:55:39;99694.72;;;10.00;100.00
24752;BME280;27246;52.376;4.628;2022-11-15T22:00:42;99693.69;;;10.01;100.00
24752;BME280;27246;52.376;4.628;2022-11-15T22:06:03;99692.41;;;10.04;100.00
24752;BME280;27246;52.376;4.628;2022-11-15T22:11:05;99679.09;;;10.08;100.00
24752;BME280;27246;52.376;4.628;2022-11-15T22:16:07;99682.03;;;10.06;100.00
24752;BME280;27246;52.376;4.628;2022-11-15T22:21:09;99683.09;;;10.12;100.00
24752;BME280;27246;52.376;4.628;2022-11-15T22:26:13;99679.91;;;10.08;100.00
24752;BME280;27246;52.376;4.628;2022-11-15T22:31:21;99668.28;;;10.13;100.00
24752;BME280;27246;52.376;4.628;2022-11-15T22:36:24;99654.75;;;10.18;100.00
24752;BME280;27246;52.376;4.628;2022-11-15T22:41:39;99656.66;;;10.17;100.00
24752;BME280;27246;52.376;4.628;2022-11-15T22:46:41;99655.59;;;10.18;100.00
24752;BME280;27246;52.376;4.628;2022-11-15T22:51:43;99645.44;;;10.19;100.00
24752;BME280;27246;52.376;4.628;2022-11-15T22:56:47;99649.66;;;10.21;100.00
24752;BME280;27246;52.376;4.628;2022-11-15T23:01:48;99643.09;;;10.23;100.00
24752;BME280;27246;52.376;4.628;2022-11-15T23:06:51;99638.84;;;10.27;100.00
24752;BME280;27246;52.376;4.628;2022-11-15T23:11:53;99635.06;;;10.28;100.00
24752;BME280;27246;52.376;4.628;2022-11-15T23:17:14;99618.97;;;10.31;100.00
24752;BME280;27246;52.376;4.628;2022-11-15T23:22:16;99615.34;;;10.31;100.00
24752;BME280;27246;52.376;4.628;2022-11-15T23:27:54;99617.06;;;10.32;100.00
24752;BME280;27246;52.376;4.628;2022-11-15T23:32:55;99621.72;;;10.31;100.00
24752;BME280;27246;52.376;4.628;2022-11-15T23:38:17;99618.09;;;10.31;100.00
24752;BME280;27246;52.376;4.628;2022-11-15T23:43:19;99619.59;;;10.27;100.00
24752;BME280;27246;52.376;4.628;2022-11-15T23:48:21;99606.47;;;10.29;100.00
24752;BME280;27246;52.376;4.628;2022-11-15T23:53:23;99610.28;;;10.28;100.00
24752;BME280;27246;52.376;4.628;2022-11-15T23:58:24;99609.22;;;10.29;100.00
